Disclaimer

    

CYCD

LWIS CYCD 240800Z AUTO 25003KT 16/11 A3019=

LWIS CYCD 240700Z AUTO 26005KT 230V330 18/12 A3019=

LWIS CYCD 240600Z AUTO 31003KT 280V050 17/12 A3020=

TAF CYCD 232338Z 2400/2404 16005KT P6SM FEW060 SCT090 RMK NXT FCST WILL BE ISSUED AT 241445Z=

CYVR

METAR CYVR 240800Z 09003KT 15SM FEW045 18/09 A3019 RMK SC1 SC TR SLP223 DENSITY ALT 100FT=

METAR CYVR 240700Z 04003KT 15SM FEW045 18/10 A3019 RMK SC1 SC TR SLP223 DENSITY ALT 100FT=

METAR CYVR 240600Z 00000KT 15SM FEW045 FEW080 17/13 A3019 RMK SC1AC1 SC TR AC TR SLP224=

TAF CYVR 240538Z 2406/2512 VRB03KT P6SM SCT040 SCT070
FM240800 09006KT P6SM SCT040 TEMPO 2408/2418 BKN040 BECMG 2416/2418 26008KT
FM241800 26008KT P6SM SCT040 BECMG 2508/2510 09008KT RMK NXT FCST BY 240900Z=

CYXX

METAR CYXX 240800Z VRB02KT 15SM SKC 16/12 A3020 RMK SLP227=

METAR CYXX 240700Z 15002KT 15SM FEW230 17/11 A3019 RMK CI1 CI TR SLP225 DENSITY ALT 200FT=

METAR CYXX 240600Z 24002KT 15SM FEW230 19/10 A3019 RMK CI1 SLP225 DENSITY ALT 400FT=

TAF CYXX 240538Z 2406/2506 VRB03KT P6SM SCT040 BECMG 2417/2419 22008KT BECMG 2504/2506 VRB03KT RMK NXT FCST BY 241200Z=

Supplemental information

Lower mainland ATIS: 1-877-517-2847

CZBB (Boundary Bay) current winds

Upper winds (Vancouver)

Data fromValid at300060009000
24000024060029062706+102611+07
24000024120028052708+102715+07
24000025000029133012+132610+08

NOTAMs

On October 10, 2019, NAV CANADA changed to the ICAO NOTAM format. They are now available only through Collaborative Flight Planning Services (CFPS) (plan.navcanada.ca). I'm working to update this site to pull in the relevant NOTAMs in the new format.